sensor_id;sensor_type;location;lat;lon;timestamp;P1;durP1;ratioP1;P2;durP2;ratioP2
5303;SDS011;2674;49.722;10.892;2024-02-28T00:01:59;29.90;;;15.00;;
5303;SDS011;2674;49.722;10.892;2024-02-28T00:04:25;28.10;;;14.37;;
5303;SDS011;2674;49.722;10.892;2024-02-28T00:06:51;30.20;;;14.10;;
5303;SDS011;2674;49.722;10.892;2024-02-28T00:09:16;28.83;;;14.53;;
5303;SDS011;2674;49.722;10.892;2024-02-28T00:11:46;34.87;;;14.30;;
5303;SDS011;2674;49.722;10.892;2024-02-28T00:14:12;24.57;;;13.60;;
5303;SDS011;2674;49.722;10.892;2024-02-28T00:16:42;25.90;;;12.57;;
5303;SDS011;2674;49.722;10.892;2024-02-28T00:19:08;29.73;;;13.97;;
5303;SDS011;2674;49.722;10.892;2024-02-28T00:21:36;27.30;;;14.00;;
5303;SDS011;2674;49.722;10.892;2024-02-28T00:24:02;28.67;;;14.40;;
5303;SDS011;2674;49.722;10.892;2024-02-28T00:26:28;24.40;;;13.70;;
5303;SDS011;2674;49.722;10.892;2024-02-28T00:28:54;25.87;;;13.27;;
5303;SDS011;2674;49.722;10.892;2024-02-28T00:31:20;25.23;;;13.00;;
5303;SDS011;2674;49.722;10.892;2024-02-28T00:33:52;24.57;;;12.70;;
5303;SDS011;2674;49.722;10.892;2024-02-28T00:36:18;30.33;;;13.67;;
5303;SDS011;2674;49.722;10.892;2024-02-28T00:38:43;27.40;;;13.70;;
5303;SDS011;2674;49.722;10.892;2024-02-28T00:41:09;25.90;;;13.83;;
5303;SDS011;2674;49.722;10.892;2024-02-28T00:43:35;28.80;;;14.13;;
5303;SDS011;2674;49.722;10.892;2024-02-28T00:46:01;19.20;;;10.90;;
5303;SDS011;2674;49.722;10.892;2024-02-28T00:48:28;28.17;;;13.97;;
5303;SDS011;2674;49.722;10.892;2024-02-28T00:50:54;33.57;;;14.67;;
5303;SDS011;2674;49.722;10.892;2024-02-28T00:53:20;23.37;;;13.57;;
5303;SDS011;2674;49.722;10.892;2024-02-28T00:55:46;28.13;;;14.53;;
5303;SDS011;2674;49.722;10.892;2024-02-28T00:58:11;28.70;;;14.73;;
5303;SDS011;2674;49.722;10.892;2024-02-28T01:00:37;24.57;;;13.13;;
5303;SDS011;2674;49.722;10.892;2024-02-28T01:03:03;35.07;;;14.10;;
5303;SDS011;2674;49.722;10.892;2024-02-28T01:05:29;25.27;;;12.77;;
5303;SDS011;2674;49.722;10.892;2024-02-28T01:07:55;27.77;;;12.83;;
5303;SDS011;2674;49.722;10.892;2024-02-28T01:10:21;23.23;;;12.20;;
5303;SDS011;2674;49.722;10.892;2024-02-28T01:12:48;26.33;;;12.07;;
5303;SDS011;2674;49.722;10.892;2024-02-28T01:15:14;25.43;;;12.17;;
5303;SDS011;2674;49.722;10.892;2024-02-28T01:17:39;19.50;;;10.23;;
5303;SDS011;2674;49.722;10.892;2024-02-28T01:20:06;22.07;;;11.67;;
5303;SDS011;2674;49.722;10.892;2024-02-28T01:22:33;23.50;;;12.10;;
5303;SDS011;2674;49.722;10.892;2024-02-28T01:24:59;23.80;;;12.53;;
5303;SDS011;2674;49.722;10.892;2024-02-28T01:27:25;26.10;;;13.30;;
5303;SDS011;2674;49.722;10.892;2024-02-28T01:29:51;22.83;;;11.40;;
5303;SDS011;2674;49.722;10.892;2024-02-28T01:32:18;22.77;;;11.60;;
5303;SDS011;2674;49.722;10.892;2024-02-28T01:34:45;19.00;;;11.77;;
5303;SDS011;2674;49.722;10.892;2024-02-28T01:37:11;27.53;;;12.70;;
5303;SDS011;2674;49.722;10.892;2024-02-28T01:39:37;26.90;;;12.63;;
5303;SDS011;2674;49.722;10.892;2024-02-28T01:42:03;25.40;;;11.80;;
5303;SDS011;2674;49.722;10.892;2024-02-28T01:44:29;22.93;;;12.17;;
5303;SDS011;2674;49.722;10.892;2024-02-28T01:46:55;18.87;;;10.47;;
5303;SDS011;2674;49.722;10.892;2024-02-28T01:49:23;20.37;;;10.63;;
5303;SDS011;2674;49.722;10.892;2024-02-28T01:51:50;22.80;;;10.90;;
5303;SDS011;2674;49.722;10.892;2024-02-28T01:54:17;25.90;;;13.40;;
5303;SDS011;2674;49.722;10.892;2024-02-28T01:56:43;24.07;;;12.00;;
5303;SDS011;2674;49.722;10.892;2024-02-28T01:59:10;22.43;;;11.30;;
5303;SDS011;2674;49.722;10.892;2024-02-28T02:01:36;21.07;;;10.63;;
5303;SDS011;2674;49.722;10.892;2024-02-28T02:04:05;19.40;;;10.20;;
5303;SDS011;2674;49.722;10.892;2024-02-28T02:06:32;21.33;;;11.47;;
5303;SDS011;2674;49.722;10.892;2024-02-28T02:09:02;27.13;;;12.37;;
5303;SDS011;2674;49.722;10.892;2024-02-28T02:11:28;22.57;;;10.87;;
5303;SDS011;2674;49.722;10.892;2024-02-28T02:13:54;23.23;;;11.00;;
5303;SDS011;2674;49.722;10.892;2024-02-28T02:16:20;19.20;;;10.93;;
5303;SDS011;2674;49.722;10.892;2024-02-28T02:18:51;23.13;;;11.27;;
5303;SDS011;2674;49.722;10.892;2024-02-28T02:21:22;23.53;;;12.40;;
5303;SDS011;2674;49.722;10.892;2024-02-28T02:23:52;20.53;;;11.00;;
5303;SDS011;2674;49.722;10.892;2024-02-28T02:26:18;21.30;;;12.80;;
5303;SDS011;2674;49.722;10.892;2024-02-28T02:28:43;22.30;;;10.90;;
5303;SDS011;2674;49.722;10.892;2024-02-28T02:31:10;25.97;;;12.10;;
5303;SDS011;2674;49.722;10.892;2024-02-28T02:33:37;25.40;;;12.23;;
5303;SDS011;2674;49.722;10.892;2024-02-28T02:36:03;21.13;;;11.20;;
5303;SDS011;2674;49.722;10.892;2024-02-28T02:38:29;20.43;;;12.47;;
5303;SDS011;2674;49.722;10.892;2024-02-28T02:40:54;23.23;;;12.30;;
5303;SDS011;2674;49.722;10.892;2024-02-28T02:43:20;22.93;;;11.97;;
5303;SDS011;2674;49.722;10.892;2024-02-28T02:45:46;20.20;;;10.70;;
5303;SDS011;2674;49.722;10.892;2024-02-28T02:48:12;25.03;;;11.43;;
5303;SDS011;2674;49.722;10.892;2024-02-28T02:50:38;19.97;;;11.67;;
5303;SDS011;2674;49.722;10.892;2024-02-28T02:53:04;25.43;;;12.03;;
5303;SDS011;2674;49.722;10.892;2024-02-28T02:55:32;21.77;;;11.57;;
5303;SDS011;2674;49.722;10.892;2024-02-28T02:57:58;23.63;;;12.60;;
5303;SDS011;2674;49.722;10.892;2024-02-28T03:00:23;26.90;;;12.47;;
5303;SDS011;2674;49.722;10.892;2024-02-28T03:02:49;25.57;;;12.37;;
5303;SDS011;2674;49.722;10.892;2024-02-28T03:05:15;24.47;;;12.57;;
5303;SDS011;2674;49.722;10.892;2024-02-28T03:07:41;22.80;;;13.60;;
5303;SDS011;2674;49.722;10.892;2024-02-28T03:10:06;29.43;;;14.07;;
5303;SDS011;2674;49.722;10.892;2024-02-28T03:12:34;19.87;;;10.60;;
5303;SDS011;2674;49.722;10.892;2024-02-28T03:15:00;23.93;;;11.90;;
5303;SDS011;2674;49.722;10.892;2024-02-28T03:17:26;24.80;;;11.70;;
5303;SDS011;2674;49.722;10.892;2024-02-28T03:19:51;25.33;;;12.17;;
5303;SDS011;2674;49.722;10.892;2024-02-28T03:22:17;28.70;;;12.80;;
5303;SDS011;2674;49.722;10.892;2024-02-28T03:24:43;24.13;;;11.43;;
5303;SDS011;2674;49.722;10.892;2024-02-28T03:27:09;22.73;;;11.90;;
5303;SDS011;2674;49.722;10.892;2024-02-28T03:29:35;23.40;;;12.70;;
5303;SDS011;2674;49.722;10.892;2024-02-28T03:32:00;22.10;;;11.53;;
5303;SDS011;2674;49.722;10.892;2024-02-28T03:34:26;24.40;;;11.60;;
5303;SDS011;2674;49.722;10.892;2024-02-28T03:36:52;23.80;;;12.63;;
5303;SDS011;2674;49.722;10.892;2024-02-28T03:39:18;24.17;;;12.43;;
5303;SDS011;2674;49.722;10.892;2024-02-28T03:41:44;32.53;;;13.60;;
5303;SDS011;2674;49.722;10.892;2024-02-28T03:44:09;20.50;;;11.03;;
5303;SDS011;2674;49.722;10.892;2024-02-28T03:46:36;16.10;;;9.30;;
5303;SDS011;2674;49.722;10.892;2024-02-28T03:49:02;21.23;;;11.20;;
5303;SDS011;2674;49.722;10.892;2024-02-28T03:51:27;28.10;;;12.77;;
5303;SDS011;2674;49.722;10.892;2024-02-28T03:53:54;23.67;;;13.20;;
5303;SDS011;2674;49.722;10.892;2024-02-28T03:56:26;19.40;;;10.73;;
5303;SDS011;2674;49.722;10.892;2024-02-28T03:58:52;20.67;;;10.80;;
5303;SDS011;2674;49.722;10.892;2024-02-28T04:01:18;24.10;;;10.20;;
5303;SDS011;2674;49.722;10.892;2024-02-28T04:03:44;24.67;;;11.57;;
5303;SDS011;2674;49.722;10.892;2024-02-28T04:06:11;19.27;;;9.47;;
5303;SDS011;2674;49.722;10.892;2024-02-28T04:08:36;19.83;;;9.83;;
5303;SDS011;2674;49.722;10.892;2024-02-28T04:11:02;19.60;;;10.23;;
5303;SDS011;2674;49.722;10.892;2024-02-28T04:13:28;20.57;;;10.80;;
5303;SDS011;2674;49.722;10.892;2024-02-28T04:15:54;18.93;;;9.43;;
5303;SDS011;2674;49.722;10.892;2024-02-28T04:18:20;19.60;;;10.17;;
5303;SDS011;2674;49.722;10.892;2024-02-28T04:20:46;21.20;;;11.60;;
5303;SDS011;2674;49.722;10.892;2024-02-28T04:23:12;19.30;;;10.87;;
5303;SDS011;2674;49.722;10.892;2024-02-28T04:25:38;21.70;;;9.63;;
5303;SDS011;2674;49.722;10.892;2024-02-28T04:28:05;20.83;;;10.67;;
5303;SDS011;2674;49.722;10.892;2024-02-28T04:30:33;17.73;;;10.20;;
5303;SDS011;2674;49.722;10.892;2024-02-28T04:32:59;21.57;;;11.27;;
5303;SDS011;2674;49.722;10.892;2024-02-28T04:35:25;20.23;;;10.73;;
5303;SDS011;2674;49.722;10.892;2024-02-28T04:37:51;20.20;;;10.97;;
5303;SDS011;2674;49.722;10.892;2024-02-28T04:40:17;16.90;;;10.23;;
5303;SDS011;2674;49.722;10.892;2024-02-28T04:42:43;21.97;;;9.73;;
5303;SDS011;2674;49.722;10.892;2024-02-28T04:45:09;22.77;;;10.87;;
5303;SDS011;2674;49.722;10.892;2024-02-28T04:47:36;18.63;;;10.83;;
5303;SDS011;2674;49.722;10.892;2024-02-28T04:50:02;16.10;;;9.23;;
5303;SDS011;2674;49.722;10.892;2024-02-28T04:52:32;19.70;;;10.80;;
5303;SDS011;2674;49.722;10.892;2024-02-28T04:54:58;21.40;;;9.67;;
5303;SDS011;2674;49.722;10.892;2024-02-28T04:57:24;21.97;;;10.80;;
5303;SDS011;2674;49.722;10.892;2024-02-28T04:59:50;13.87;;;9.10;;
5303;SDS011;2674;49.722;10.892;2024-02-28T05:02:16;16.17;;;9.73;;
5303;SDS011;2674;49.722;10.892;2024-02-28T05:04:42;15.27;;;9.70;;
5303;SDS011;2674;49.722;10.892;2024-02-28T05:07:08;16.40;;;9.43;;
5303;SDS011;2674;49.722;10.892;2024-02-28T05:09:34;16.50;;;8.53;;
5303;SDS011;2674;49.722;10.892;2024-02-28T05:12:00;21.60;;;10.67;;
5303;SDS011;2674;49.722;10.892;2024-02-28T05:14:26;17.13;;;9.53;;
5303;SDS011;2674;49.722;10.892;2024-02-28T05:16:52;20.87;;;9.77;;
5303;SDS011;2674;49.722;10.892;2024-02-28T05:19:18;17.07;;;10.10;;
5303;SDS011;2674;49.722;10.892;2024-02-28T05:21:44;17.17;;;9.70;;
5303;SDS011;2674;49.722;10.892;2024-02-28T05:24:11;15.07;;;8.60;;
5303;SDS011;2674;49.722;10.892;2024-02-28T05:26:37;12.80;;;8.03;;
5303;SDS011;2674;49.722;10.892;2024-02-28T05:29:03;15.40;;;8.93;;
5303;SDS011;2674;49.722;10.892;2024-02-28T05:31:30;21.80;;;10.83;;
5303;SDS011;2674;49.722;10.892;2024-02-28T05:33:57;21.97;;;10.50;;
5303;SDS011;2674;49.722;10.892;2024-02-28T05:36:25;14.80;;;8.73;;
5303;SDS011;2674;49.722;10.892;2024-02-28T05:38:52;15.50;;;9.40;;
5303;SDS011;2674;49.722;10.892;2024-02-28T05:41:19;16.23;;;8.87;;
5303;SDS011;2674;49.722;10.892;2024-02-28T05:43:46;16.30;;;10.07;;
5303;SDS011;2674;49.722;10.892;2024-02-28T05:46:13;15.13;;;9.20;;
5303;SDS011;2674;49.722;10.892;2024-02-28T05:48:43;18.73;;;9.80;;
5303;SDS011;2674;49.722;10.892;2024-02-28T05:51:12;15.87;;;9.60;;
5303;SDS011;2674;49.722;10.892;2024-02-28T05:53:38;15.77;;;9.03;;
5303;SDS011;2674;49.722;10.892;2024-02-28T05:56:05;16.73;;;9.30;;
5303;SDS011;2674;49.722;10.892;2024-02-28T05:58:45;18.43;;;9.80;;
5303;SDS011;2674;49.722;10.892;2024-02-28T06:01:13;20.50;;;10.10;;
5303;SDS011;2674;49.722;10.892;2024-02-28T06:03:41;17.50;;;9.63;;
5303;SDS011;2674;49.722;10.892;2024-02-28T06:06:07;20.27;;;9.40;;
5303;SDS011;2674;49.722;10.892;2024-02-28T06:08:33;15.30;;;9.50;;
5303;SDS011;2674;49.722;10.892;2024-02-28T06:11:00;18.33;;;9.07;;
5303;SDS011;2674;49.722;10.892;2024-02-28T06:13:26;15.93;;;9.70;;
5303;SDS011;2674;49.722;10.892;2024-02-28T06:15:54;14.97;;;9.47;;
5303;SDS011;2674;49.722;10.892;2024-02-28T06:18:20;18.53;;;9.67;;
5303;SDS011;2674;49.722;10.892;2024-02-28T06:20:48;18.00;;;9.40;;
5303;SDS011;2674;49.722;10.892;2024-02-28T06:23:14;19.40;;;10.10;;
5303;SDS011;2674;49.722;10.892;2024-02-28T06:25:40;16.63;;;9.70;;
5303;SDS011;2674;49.722;10.892;2024-02-28T06:28:06;18.00;;;10.60;;
5303;SDS011;2674;49.722;10.892;2024-02-28T06:30:32;18.37;;;9.70;;
5303;SDS011;2674;49.722;10.892;2024-02-28T06:32:59;17.90;;;10.60;;
5303;SDS011;2674;49.722;10.892;2024-02-28T06:35:25;16.00;;;9.40;;
5303;SDS011;2674;49.722;10.892;2024-02-28T06:37:51;12.57;;;8.93;;
5303;SDS011;2674;49.722;10.892;2024-02-28T06:40:17;18.47;;;8.87;;
5303;SDS011;2674;49.722;10.892;2024-02-28T06:42:43;15.17;;;8.07;;
5303;SDS011;2674;49.722;10.892;2024-02-28T06:45:09;14.60;;;9.47;;
5303;SDS011;2674;49.722;10.892;2024-02-28T06:47:35;19.63;;;9.80;;
5303;SDS011;2674;49.722;10.892;2024-02-28T06:50:04;16.90;;;9.37;;
5303;SDS011;2674;49.722;10.892;2024-02-28T06:52:31;18.13;;;11.60;;
5303;SDS011;2674;49.722;10.892;2024-02-28T06:54:57;31.33;;;17.80;;
5303;SDS011;2674;49.722;10.892;2024-02-28T06:57:25;24.97;;;13.20;;
5303;SDS011;2674;49.722;10.892;2024-02-28T06:59:50;19.30;;;10.90;;
5303;SDS011;2674;49.722;10.892;2024-02-28T07:02:16;26.37;;;13.83;;
5303;SDS011;2674;49.722;10.892;2024-02-28T07:04:42;18.10;;;10.27;;
5303;SDS011;2674;49.722;10.892;2024-02-28T07:07:08;18.60;;;8.83;;
5303;SDS011;2674;49.722;10.892;2024-02-28T07:09:34;15.47;;;8.77;;
5303;SDS011;2674;49.722;10.892;2024-02-28T07:12:00;19.43;;;10.13;;
5303;SDS011;2674;49.722;10.892;2024-02-28T07:14:28;30.10;;;13.83;;
5303;SDS011;2674;49.722;10.892;2024-02-28T07:16:54;22.63;;;12.23;;
5303;SDS011;2674;49.722;10.892;2024-02-28T07:19:20;19.60;;;11.33;;
5303;SDS011;2674;49.722;10.892;2024-02-28T07:21:46;19.13;;;10.07;;
5303;SDS011;2674;49.722;10.892;2024-02-28T07:24:14;16.83;;;10.50;;
5303;SDS011;2674;49.722;10.892;2024-02-28T07:26:40;21.30;;;11.40;;
5303;SDS011;2674;49.722;10.892;2024-02-28T07:29:07;26.57;;;12.60;;
5303;SDS011;2674;49.722;10.892;2024-02-28T07:31:32;17.00;;;9.63;;
5303;SDS011;2674;49.722;10.892;2024-02-28T07:33:58;17.90;;;9.10;;
5303;SDS011;2674;49.722;10.892;2024-02-28T07:36:24;15.10;;;8.53;;
5303;SDS011;2674;49.722;10.892;2024-02-28T07:38:50;19.27;;;11.50;;
5303;SDS011;2674;49.722;10.892;2024-02-28T07:41:17;12.60;;;8.43;;
5303;SDS011;2674;49.722;10.892;2024-02-28T07:43:43;13.43;;;8.60;;
5303;SDS011;2674;49.722;10.892;2024-02-28T07:46:09;15.00;;;9.00;;
5303;SDS011;2674;49.722;10.892;2024-02-28T07:48:36;17.60;;;10.07;;
5303;SDS011;2674;49.722;10.892;2024-02-28T07:51:09;18.40;;;7.77;;
5303;SDS011;2674;49.722;10.892;2024-02-28T07:53:35;17.67;;;9.50;;
5303;SDS011;2674;49.722;10.892;2024-02-28T07:56:00;15.23;;;8.67;;
5303;SDS011;2674;49.722;10.892;2024-02-28T07:58:27;15.80;;;8.10;;
5303;SDS011;2674;49.722;10.892;2024-02-28T08:00:53;13.90;;;8.20;;
5303;SDS011;2674;49.722;10.892;2024-02-28T08:03:19;15.60;;;9.47;;
5303;SDS011;2674;49.722;10.892;2024-02-28T08:05:45;17.10;;;9.10;;
5303;SDS011;2674;49.722;10.892;2024-02-28T08:08:12;16.20;;;8.30;;
5303;SDS011;2674;49.722;10.892;2024-02-28T08:10:38;12.97;;;7.50;;
5303;SDS011;2674;49.722;10.892;2024-02-28T08:13:04;16.50;;;8.40;;
5303;SDS011;2674;49.722;10.892;2024-02-28T08:15:33;13.80;;;7.83;;
5303;SDS011;2674;49.722;10.892;2024-02-28T08:17:59;17.93;;;7.77;;
5303;SDS011;2674;49.722;10.892;2024-02-28T08:20:25;16.07;;;7.87;;
5303;SDS011;2674;49.722;10.892;2024-02-28T08:23:00;15.50;;;7.27;;
5303;SDS011;2674;49.722;10.892;2024-02-28T08:25:34;15.33;;;8.00;;
5303;SDS011;2674;49.722;10.892;2024-02-28T08:28:00;10.07;;;6.77;;
5303;SDS011;2674;49.722;10.892;2024-02-28T08:30:25;13.97;;;7.90;;
5303;SDS011;2674;49.722;10.892;2024-02-28T08:32:51;16.17;;;7.20;;
5303;SDS011;2674;49.722;10.892;2024-02-28T08:35:20;10.67;;;7.03;;
5303;SDS011;2674;49.722;10.892;2024-02-28T08:37:48;10.10;;;6.43;;
5303;SDS011;2674;49.722;10.892;2024-02-28T08:40:14;17.20;;;8.03;;
5303;SDS011;2674;49.722;10.892;2024-02-28T08:42:40;19.30;;;8.10;;
5303;SDS011;2674;49.722;10.892;2024-02-28T08:45:06;13.23;;;9.10;;
5303;SDS011;2674;49.722;10.892;2024-02-28T08:47:33;13.57;;;8.17;;
5303;SDS011;2674;49.722;10.892;2024-02-28T08:49:59;19.50;;;9.83;;
5303;SDS011;2674;49.722;10.892;2024-02-28T08:52:25;19.67;;;11.07;;
5303;SDS011;2674;49.722;10.892;2024-02-28T08:54:51;16.93;;;10.10;;
5303;SDS011;2674;49.722;10.892;2024-02-28T08:57:18;18.63;;;10.00;;
5303;SDS011;2674;49.722;10.892;2024-02-28T08:59:47;24.60;;;11.33;;
5303;SDS011;2674;49.722;10.892;2024-02-28T09:02:13;16.27;;;9.70;;
5303;SDS011;2674;49.722;10.892;2024-02-28T09:04:38;20.23;;;10.73;;
5303;SDS011;2674;49.722;10.892;2024-02-28T09:07:04;19.70;;;9.33;;
5303;SDS011;2674;49.722;10.892;2024-02-28T09:09:30;15.90;;;9.17;;
5303;SDS011;2674;49.722;10.892;2024-02-28T09:11:59;21.03;;;9.03;;
5303;SDS011;2674;49.722;10.892;2024-02-28T09:14:27;15.93;;;8.97;;
5303;SDS011;2674;49.722;10.892;2024-02-28T09:16:53;14.83;;;7.93;;
5303;SDS011;2674;49.722;10.892;2024-02-28T09:19:21;17.53;;;8.47;;
5303;SDS011;2674;49.722;10.892;2024-02-28T09:21:48;17.30;;;8.70;;
5303;SDS011;2674;49.722;10.892;2024-02-28T09:24:14;15.00;;;8.90;;
5303;SDS011;2674;49.722;10.892;2024-02-28T09:26:39;18.13;;;9.17;;
5303;SDS011;2674;49.722;10.892;2024-02-28T09:29:05;13.67;;;7.43;;
5303;SDS011;2674;49.722;10.892;2024-02-28T09:31:34;15.63;;;8.57;;
5303;SDS011;2674;49.722;10.892;2024-02-28T09:34:00;14.53;;;8.83;;
5303;SDS011;2674;49.722;10.892;2024-02-28T09:36:29;18.20;;;8.80;;
5303;SDS011;2674;49.722;10.892;2024-02-28T09:38:55;17.67;;;8.80;;
5303;SDS011;2674;49.722;10.892;2024-02-28T09:41:21;12.40;;;6.83;;
5303;SDS011;2674;49.722;10.892;2024-02-28T09:43:48;12.53;;;7.00;;
5303;SDS011;2674;49.722;10.892;2024-02-28T09:46:14;14.73;;;8.10;;
5303;SDS011;2674;49.722;10.892;2024-02-28T09:48:41;16.60;;;9.10;;
5303;SDS011;2674;49.722;10.892;2024-02-28T09:51:08;16.20;;;8.90;;
5303;SDS011;2674;49.722;10.892;2024-02-28T09:53:37;17.97;;;9.20;;
5303;SDS011;2674;49.722;10.892;2024-02-28T09:56:04;12.23;;;7.73;;
5303;SDS011;2674;49.722;10.892;2024-02-28T09:58:31;18.17;;;9.13;;
5303;SDS011;2674;49.722;10.892;2024-02-28T10:01:00;16.37;;;9.17;;
5303;SDS011;2674;49.722;10.892;2024-02-28T10:03:30;14.70;;;8.70;;
5303;SDS011;2674;49.722;10.892;2024-02-28T10:05:57;15.80;;;8.77;;
5303;SDS011;2674;49.722;10.892;2024-02-28T10:08:23;16.63;;;8.60;;
5303;SDS011;2674;49.722;10.892;2024-02-28T10:10:49;15.83;;;8.40;;
5303;SDS011;2674;49.722;10.892;2024-02-28T10:13:19;14.60;;;8.40;;
5303;SDS011;2674;49.722;10.892;2024-02-28T10:15:45;16.30;;;10.30;;
5303;SDS011;2674;49.722;10.892;2024-02-28T10:18:12;16.57;;;9.00;;
5303;SDS011;2674;49.722;10.892;2024-02-28T10:20:38;14.87;;;9.70;;
5303;SDS011;2674;49.722;10.892;2024-02-28T10:23:04;14.03;;;7.60;;
5303;SDS011;2674;49.722;10.892;2024-02-28T10:25:46;14.53;;;8.30;;
5303;SDS011;2674;49.722;10.892;2024-02-28T10:28:12;14.70;;;8.17;;
5303;SDS011;2674;49.722;10.892;2024-02-28T10:30:40;16.40;;;8.40;;
5303;SDS011;2674;49.722;10.892;2024-02-28T10:33:10;15.30;;;8.87;;
5303;SDS011;2674;49.722;10.892;2024-02-28T10:35:40;16.20;;;9.57;;
5303;SDS011;2674;49.722;10.892;2024-02-28T10:38:09;19.93;;;10.03;;
5303;SDS011;2674;49.722;10.892;2024-02-28T10:40:36;18.70;;;9.93;;
5303;SDS011;2674;49.722;10.892;2024-02-28T10:43:02;15.63;;;9.80;;
5303;SDS011;2674;49.722;10.892;2024-02-28T10:45:33;15.00;;;9.13;;
5303;SDS011;2674;49.722;10.892;2024-02-28T10:48:01;17.10;;;9.53;;
5303;SDS011;2674;49.722;10.892;2024-02-28T10:50:27;18.07;;;9.80;;
5303;SDS011;2674;49.722;10.892;2024-02-28T10:52:53;16.43;;;9.27;;
5303;SDS011;2674;49.722;10.892;2024-02-28T10:55:25;13.70;;;8.83;;
5303;SDS011;2674;49.722;10.892;2024-02-28T10:57:59;15.20;;;9.03;;
5303;SDS011;2674;49.722;10.892;2024-02-28T11:00:36;14.57;;;8.73;;
5303;SDS011;2674;49.722;10.892;2024-02-28T11:03:10;12.80;;;7.40;;
5303;SDS011;2674;49.722;10.892;2024-02-28T11:05:39;11.73;;;7.70;;
5303;SDS011;2674;49.722;10.892;2024-02-28T11:08:22;15.23;;;8.17;;
5303;SDS011;2674;49.722;10.892;2024-02-28T11:11:02;13.60;;;8.50;;
5303;SDS011;2674;49.722;10.892;2024-02-28T11:13:33;14.47;;;8.57;;
5303;SDS011;2674;49.722;10.892;2024-02-28T11:16:09;11.77;;;7.53;;
5303;SDS011;2674;49.722;10.892;2024-02-28T11:18:35;14.57;;;7.53;;
5303;SDS011;2674;49.722;10.892;2024-02-28T11:21:01;10.90;;;7.20;;
5303;SDS011;2674;49.722;10.892;2024-02-28T11:23:35;13.40;;;8.00;;
5303;SDS011;2674;49.722;10.892;2024-02-28T11:26:02;12.13;;;7.43;;
5303;SDS011;2674;49.722;10.892;2024-02-28T11:28:28;10.00;;;6.90;;
5303;SDS011;2674;49.722;10.892;2024-02-28T11:30:54;10.97;;;7.10;;
5303;SDS011;2674;49.722;10.892;2024-02-28T11:33:20;11.10;;;7.67;;
5303;SDS011;2674;49.722;10.892;2024-02-28T11:35:56;11.13;;;6.83;;
5303;SDS011;2674;49.722;10.892;2024-02-28T11:38:25;10.93;;;6.53;;
5303;SDS011;2674;49.722;10.892;2024-02-28T11:40:52;12.10;;;7.13;;
5303;SDS011;2674;49.722;10.892;2024-02-28T11:43:18;12.80;;;7.80;;
5303;SDS011;2674;49.722;10.892;2024-02-28T11:45:44;12.53;;;8.43;;
5303;SDS011;2674;49.722;10.892;2024-02-28T11:48:14;14.27;;;7.90;;
5303;SDS011;2674;49.722;10.892;2024-02-28T11:50:41;13.40;;;7.60;;
5303;SDS011;2674;49.722;10.892;2024-02-28T11:53:08;12.47;;;8.30;;
5303;SDS011;2674;49.722;10.892;2024-02-28T11:55:34;11.30;;;7.93;;
5303;SDS011;2674;49.722;10.892;2024-02-28T11:58:00;14.93;;;9.63;;
5303;SDS011;2674;49.722;10.892;2024-02-28T12:00:26;10.70;;;7.40;;
5303;SDS011;2674;49.722;10.892;2024-02-28T12:02:52;8.97;;;6.43;;
5303;SDS011;2674;49.722;10.892;2024-02-28T12:05:29;6.60;;;5.43;;
5303;SDS011;2674;49.722;10.892;2024-02-28T12:07:54;8.20;;;5.57;;
5303;SDS011;2674;49.722;10.892;2024-02-28T12:10:21;8.17;;;5.27;;
5303;SDS011;2674;49.722;10.892;2024-02-28T12:12:48;7.30;;;5.70;;
5303;SDS011;2674;49.722;10.892;2024-02-28T12:15:15;7.67;;;5.97;;
5303;SDS011;2674;49.722;10.892;2024-02-28T12:17:42;13.30;;;8.13;;
5303;SDS011;2674;49.722;10.892;2024-02-28T12:20:08;12.43;;;5.87;;
5303;SDS011;2674;49.722;10.892;2024-02-28T12:22:34;10.07;;;5.97;;
5303;SDS011;2674;49.722;10.892;2024-02-28T12:25:00;9.10;;;6.57;;
5303;SDS011;2674;49.722;10.892;2024-02-28T12:27:29;7.40;;;5.47;;
5303;SDS011;2674;49.722;10.892;2024-02-28T12:29:56;17.87;;;11.20;;
5303;SDS011;2674;49.722;10.892;2024-02-28T12:32:22;10.80;;;6.37;;
5303;SDS011;2674;49.722;10.892;2024-02-28T12:34:50;10.27;;;6.07;;
5303;SDS011;2674;49.722;10.892;2024-02-28T12:37:16;8.83;;;5.97;;
5303;SDS011;2674;49.722;10.892;2024-02-28T12:39:42;9.83;;;6.07;;
5303;SDS011;2674;49.722;10.892;2024-02-28T12:42:08;7.27;;;5.47;;
5303;SDS011;2674;49.722;10.892;2024-02-28T12:44:34;7.93;;;5.73;;
5303;SDS011;2674;49.722;10.892;2024-02-28T12:47:00;9.03;;;5.60;;
5303;SDS011;2674;49.722;10.892;2024-02-28T12:49:25;8.97;;;5.60;;
5303;SDS011;2674;49.722;10.892;2024-02-28T12:51:51;9.83;;;6.37;;
5303;SDS011;2674;49.722;10.892;2024-02-28T12:54:17;9.43;;;6.43;;
5303;SDS011;2674;49.722;10.892;2024-02-28T12:56:45;5.30;;;4.70;;
5303;SDS011;2674;49.722;10.892;2024-02-28T12:59:14;8.50;;;4.97;;
5303;SDS011;2674;49.722;10.892;2024-02-28T13:01:40;12.00;;;5.83;;
5303;SDS011;2674;49.722;10.892;2024-02-28T13:04:07;7.87;;;5.20;;
5303;SDS011;2674;49.722;10.892;2024-02-28T13:06:32;6.97;;;5.20;;
5303;SDS011;2674;49.722;10.892;2024-02-28T13:08:58;8.23;;;5.60;;
5303;SDS011;2674;49.722;10.892;2024-02-28T13:11:24;10.23;;;6.13;;
5303;SDS011;2674;49.722;10.892;2024-02-28T13:13:50;8.00;;;5.10;;
5303;SDS011;2674;49.722;10.892;2024-02-28T13:16:17;9.87;;;5.33;;
5303;SDS011;2674;49.722;10.892;2024-02-28T13:18:43;9.50;;;5.07;;
5303;SDS011;2674;49.722;10.892;2024-02-28T13:21:10;6.63;;;4.97;;
5303;SDS011;2674;49.722;10.892;2024-02-28T13:23:46;6.90;;;4.90;;
5303;SDS011;2674;49.722;10.892;2024-02-28T13:26:12;7.60;;;4.73;;
5303;SDS011;2674;49.722;10.892;2024-02-28T13:28:45;7.30;;;4.87;;
5303;SDS011;2674;49.722;10.892;2024-02-28T13:31:11;7.87;;;5.50;;
5303;SDS011;2674;49.722;10.892;2024-02-28T13:33:38;9.23;;;6.50;;
5303;SDS011;2674;49.722;10.892;2024-02-28T13:36:06;8.00;;;5.73;;
5303;SDS011;2674;49.722;10.892;2024-02-28T13:38:32;7.20;;;5.13;;
5303;SDS011;2674;49.722;10.892;2024-02-28T13:40:58;7.90;;;5.50;;
5303;SDS011;2674;49.722;10.892;2024-02-28T13:43:25;6.70;;;4.93;;
5303;SDS011;2674;49.722;10.892;2024-02-28T13:45:50;11.60;;;5.50;;
5303;SDS011;2674;49.722;10.892;2024-02-28T13:48:20;7.57;;;4.90;;
5303;SDS011;2674;49.722;10.892;2024-02-28T13:50:49;7.17;;;5.00;;
5303;SDS011;2674;49.722;10.892;2024-02-28T13:53:15;8.27;;;4.90;;
5303;SDS011;2674;49.722;10.892;2024-02-28T13:55:41;8.40;;;5.60;;
5303;SDS011;2674;49.722;10.892;2024-02-28T13:58:08;7.37;;;5.27;;
5303;SDS011;2674;49.722;10.892;2024-02-28T14:00:36;7.40;;;5.60;;
5303;SDS011;2674;49.722;10.892;2024-02-28T14:03:02;6.90;;;4.90;;
5303;SDS011;2674;49.722;10.892;2024-02-28T14:05:29;6.50;;;4.90;;
5303;SDS011;2674;49.722;10.892;2024-02-28T14:07:55;7.67;;;5.53;;
5303;SDS011;2674;49.722;10.892;2024-02-28T14:10:26;8.30;;;5.70;;
5303;SDS011;2674;49.722;10.892;2024-02-28T14:12:52;8.03;;;5.73;;
5303;SDS011;2674;49.722;10.892;2024-02-28T14:15:18;5.90;;;4.20;;
5303;SDS011;2674;49.722;10.892;2024-02-28T14:17:45;7.17;;;4.87;;
5303;SDS011;2674;49.722;10.892;2024-02-28T14:20:11;7.03;;;4.80;;
5303;SDS011;2674;49.722;10.892;2024-02-28T14:22:37;7.70;;;6.13;;
5303;SDS011;2674;49.722;10.892;2024-02-28T14:25:07;6.30;;;5.20;;
5303;SDS011;2674;49.722;10.892;2024-02-28T14:27:37;7.10;;;5.70;;
5303;SDS011;2674;49.722;10.892;2024-02-28T14:30:04;9.00;;;5.93;;
5303;SDS011;2674;49.722;10.892;2024-02-28T14:32:34;10.90;;;6.30;;
5303;SDS011;2674;49.722;10.892;2024-02-28T14:35:02;10.23;;;5.93;;
5303;SDS011;2674;49.722;10.892;2024-02-28T14:37:32;8.90;;;6.23;;
5303;SDS011;2674;49.722;10.892;2024-02-28T14:40:01;7.20;;;5.17;;
5303;SDS011;2674;49.722;10.892;2024-02-28T14:42:31;8.97;;;6.03;;